Time;durP1;ratioP1;P1;durP2;ratioP2;P2;SDS_P1;SDS_P2;PMS_P1;PMS_P2;Temp;Humidity;BMP_temperature;BMP_pressure;BME280_temperature;BME280_humidity;BME280_pressure;Samples;Min_cycle;Max_cycle;Signal;HPM_P1;HPM_P2
2023/09/25 00:00:33;;;;;;;;;;;;;;;;;;5084328;28;19908;-61
2023/09/25 00:02:59;;;;;;;;;;;;;;;;;;5076256;28;19913;-61
2023/09/25 00:05:25;;;;;;;;;;;;;;;;;;5079255;28;20002;-61
2023/09/25 00:07:51;;;;;;;;;;;;;;;;;;5086233;28;19919;-60
2023/09/25 00:10:17;;;;;;;;;;;;;;;;;;5080753;28;19970;-61
2023/09/25 00:12:44;;;;;;;;;;;;;;;;;;5078316;28;20397;-61
2023/09/25 00:15:10;;;;;;;;;;;;;;;;;;5076753;28;19916;-61
2023/09/25 00:17:36;;;;;;;;;;;;;;;;;;5082464;28;19908;-62
2023/09/25 00:20:04;;;;;;;;;;;;;;;;;;5074449;28;19927;-61
2023/09/25 00:22:30;;;;;;;;;;;;;;;;;;5076805;28;19923;-61
2023/09/25 00:24:56;;;;;;;;;;;;;;;;;;5083755;28;20416;-61
2023/09/25 00:27:22;;;;;;;;;;;;;;;;;;5077019;28;20027;-61
2023/09/25 00:29:48;;;;;;;;;;;;;;;;;;5083940;28;19959;-61
2023/09/25 00:32:14;;;;;;;;;;;;;;;;;;5086189;28;20332;-61
2023/09/25 00:34:40;;;;;;;;;;;;;;;;;;5090205;28;19913;-61
2023/09/25 00:37:07;;;;;;;;;;;;;;;;;;5081703;28;19943;-62
2023/09/25 00:39:33;;;;;;;;;;;;;;;;;;5086446;28;19920;-61
2023/09/25 00:41:59;;;;;;;;;;;;;;;;;;5077303;28;19950;-62
2023/09/25 00:44:25;;;;;;;;;;;;;;;;;;5082332;28;20337;-61
2023/09/25 00:46:51;;;;;;;;;;;;;;;;;;5082936;28;20007;-60
2023/09/25 00:49:17;;;;;;;;;;;;;;;;;;5085262;28;19922;-62
2023/09/25 00:51:44;;;;;;;;;;;;;;;;;;5079689;28;19916;-59
2023/09/25 00:54:10;;;;;;;;;;;;;;;;;;5086023;28;20017;-58
2023/09/25 00:56:36;;;;;;;;;;;;;;;;;;5077627;28;20378;-58
2023/09/25 00:59:02;;;;;;;;;;;;;;;;;;5086737;28;19982;-59
2023/09/25 01:01:28;;;;;;;;;;;;;;;;;;5089867;28;20015;-61
2023/09/25 01:03:54;;;;;;;;;;;;;;;;;;5073985;28;19920;-61
2023/09/25 01:06:19;;;;;;;;;;;;;;;;;;5078629;28;19913;-61
2023/09/25 01:08:46;;;;;;;;;;;;;;;;;;5084836;28;19912;-61
2023/09/25 01:11:12;;;;;;;;;;;;;;;;;;5093499;28;19956;-61
2023/09/25 01:13:38;;;;;;;;;;;;;;;;;;5085190;28;20419;-61
2023/09/25 01:16:04;;;;;;;;;;;;;;;;;;5077504;28;19912;-61
2023/09/25 01:18:30;;;;;;;;;;;;;;;;;;5072667;28;19917;-62
2023/09/25 01:20:55;;;;;;;;;;;;;;;;;;5086782;28;19966;-62
2023/09/25 01:23:21;;;;;;;;;;;;;;;;;;5079205;28;20027;-61
2023/09/25 01:25:47;;;;;;;;;;;;;;;;;;5079508;28;20015;-61
2023/09/25 01:28:13;;;;;;;;;;;;;;;;;;5074335;28;19919;-61
2023/09/25 01:30:39;;;;;;;;;;;;;;;;;;5079549;28;20288;-61
2023/09/25 01:33:05;;;;;;;;;;;;;;;;;;5073742;28;19931;-61
2023/09/25 01:35:31;;;;;;;;;;;;;;;;;;5085431;28;19912;-62
2023/09/25 01:37:57;;;;;;;;;;;;;;;;;;5089252;28;20395;-61
2023/09/25 01:40:24;;;;;;;;;;;;;;;;;;5084688;28;19947;-62
2023/09/25 01:42:50;;;;;;;;;;;;;;;;;;5081886;28;20348;-61
2023/09/25 01:45:19;;;;;;;;;;;;;;;;;;5081417;28;19920;-61
2023/09/25 01:47:51;;;;;;;;;;;;;;;;;;5087509;28;20364;-61
2023/09/25 01:50:17;;;;;;;;;;;;;;;;;;5081478;28;19912;-61
2023/09/25 01:52:43;;;;;;;;;;;;;;;;;;5076675;28;19913;-62
2023/09/25 01:55:09;;;;;;;;;;;;;;;;;;5093411;28;19951;-62
2023/09/25 01:57:35;;;;;;;;;;;;;;;;;;5085314;28;20350;-62
2023/09/25 02:00:07;;;;;;;;;;;;;;;;;;5072542;28;19918;-61
2023/09/25 02:02:33;;;;;;;;;;;;;;;;;;5073442;28;19917;-61
2023/09/25 02:04:59;;;;;;;;;;;;;;;;;;5072598;28;19930;-61
2023/09/25 02:07:25;;;;;;;;;;;;;;;;;;5073731;28;19959;-61
2023/09/25 02:09:51;;;;;;;;;;;;;;;;;;5079729;28;20482;-61
2023/09/25 02:12:17;;;;;;;;;;;;;;;;;;5088642;28;20010;-59
2023/09/25 02:14:43;;;;;;;;;;;;;;;;;;5084812;28;19916;-59
2023/09/25 02:17:09;;;;;;;;;;;;;;;;;;5074228;28;19926;-59
2023/09/25 02:19:36;;;;;;;;;;;;;;;;;;5088690;28;19955;-58
2023/09/25 02:22:06;;;;;;;;;;;;;;;;;;5073116;28;20292;-60
2023/09/25 02:24:32;;;;;;;;;;;;;;;;;;5077525;28;19927;-60
2023/09/25 02:26:58;;;;;;;;;;;;;;;;;;5087198;28;19991;-60
2023/09/25 02:29:24;;;;;;;;;;;;;;;;;;5078710;28;20041;-60
2023/09/25 02:31:49;;;;;;;;;;;;;;;;;;5087305;28;19920;-61
2023/09/25 02:34:16;;;;;;;;;;;;;;;;;;5076919;28;20444;-61
2023/09/25 02:36:42;;;;;;;;;;;;;;;;;;5080048;28;19913;-60
2023/09/25 02:39:09;;;;;;;;;;;;;;;;;;5075370;28;20268;-60
2023/09/25 02:41:35;;;;;;;;;;;;;;;;;;5080790;28;20036;-60
2023/09/25 02:44:01;;;;;;;;;;;;;;;;;;5085766;28;20040;-60
2023/09/25 02:46:28;;;;;;;;;;;;;;;;;;5076873;28;19951;-61
2023/09/25 02:48:54;;;;;;;;;;;;;;;;;;5078105;28;19912;-60
2023/09/25 02:51:20;;;;;;;;;;;;;;;;;;5086269;28;19927;-61
2023/09/25 02:53:46;;;;;;;;;;;;;;;;;;5072237;28;19963;-61
2023/09/25 02:56:11;;;;;;;;;;;;;;;;;;5088983;28;19912;-60
2023/09/25 02:58:37;;;;;;;;;;;;;;;;;;5086468;28;20007;-60
2023/09/25 03:01:03;;;;;;;;;;;;;;;;;;5085231;28;20427;-60
2023/09/25 03:03:29;;;;;;;;;;;;;;;;;;5072205;28;20031;-60
2023/09/25 03:05:55;;;;;;;;;;;;;;;;;;5078041;28;20381;-60
2023/09/25 03:08:21;;;;;;;;;;;;;;;;;;5091730;28;19951;-61
2023/09/25 03:10:47;;;;;;;;;;;;;;;;;;5089633;28;19962;-61
2023/09/25 03:13:13;;;;;;;;;;;;;;;;;;5075764;28;20002;-60
2023/09/25 03:15:39;;;;;;;;;;;;;;;;;;5075585;28;19907;-60
2023/09/25 03:18:05;;;;;;;;;;;;;;;;;;5081006;28;19913;-60
2023/09/25 03:20:31;;;;;;;;;;;;;;;;;;5074540;28;20392;-62
2023/09/25 03:22:57;;;;;;;;;;;;;;;;;;5071790;28;19922;-62
2023/09/25 03:25:23;;;;;;;;;;;;;;;;;;5072379;28;19912;-61
2023/09/25 03:27:48;;;;;;;;;;;;;;;;;;5082344;28;19912;-61
2023/09/25 03:30:15;;;;;;;;;;;;;;;;;;5080424;28;19963;-60
2023/09/25 03:32:41;;;;;;;;;;;;;;;;;;5076008;28;20011;-63
2023/09/25 03:35:07;;;;;;;;;;;;;;;;;;5076240;28;19916;-63
2023/09/25 03:37:33;;;;;;;;;;;;;;;;;;5089139;28;20324;-63
2023/09/25 03:39:59;;;;;;;;;;;;;;;;;;5088749;28;19916;-63
2023/09/25 03:42:25;;;;;;;;;;;;;;;;;;5090671;28;20004;-63
2023/09/25 03:44:51;;;;;;;;;;;;;;;;;;5082322;28;19959;-63
2023/09/25 03:47:17;;;;;;;;;;;;;;;;;;5075454;28;19912;-63
2023/09/25 03:49:44;;;;;;;;;;;;;;;;;;5075414;28;19983;-63
2023/09/25 03:52:09;;;;;;;;;;;;;;;;;;5076667;28;19921;-63
2023/09/25 03:54:35;;;;;;;;;;;;;;;;;;5088484;28;19954;-63
2023/09/25 03:57:01;;;;;;;;;;;;;;;;;;5081314;28;19916;-63
2023/09/25 03:59:27;;;;;;;;;;;;;;;;;;5084242;28;19917;-63
2023/09/25 04:01:53;;;;;;;;;;;;;;;;;;5080904;28;19951;-62
2023/09/25 04:04:19;;;;;;;;;;;;;;;;;;5074075;28;19962;-63
2023/09/25 04:06:45;;;;;;;;;;;;;;;;;;5082077;28;19920;-63
2023/09/25 04:09:11;;;;;;;;;;;;;;;;;;5091302;28;19912;-62
2023/09/25 04:11:37;;;;;;;;;;;;;;;;;;5080401;28;20003;-63
2023/09/25 04:14:06;;;;;;;;;;;;;;;;;;5087638;28;19982;-63
2023/09/25 04:16:33;;;;;;;;;;;;;;;;;;5087544;28;19917;-63
2023/09/25 04:18:59;;;;;;;;;;;;;;;;;;5081155;28;19924;-65
2023/09/25 04:21:24;;;;;;;;;;;;;;;;;;5083214;28;19924;-63
2023/09/25 04:23:50;;;;;;;;;;;;;;;;;;5078289;28;19919;-62
2023/09/25 04:26:16;;;;;;;;;;;;;;;;;;5081331;28;19939;-63
2023/09/25 04:28:42;;;;;;;;;;;;;;;;;;5085943;28;19938;-63
2023/09/25 04:31:10;;;;;;;;;;;;;;;;;;5080020;28;19959;-60
2023/09/25 04:33:36;;;;;;;;;;;;;;;;;;5082970;28;19956;-61
2023/09/25 04:36:02;;;;;;;;;;;;;;;;;;5083588;28;19978;-61
2023/09/25 04:38:28;;;;;;;;;;;;;;;;;;5083358;28;19974;-60
2023/09/25 04:40:54;;;;;;;;;;;;;;;;;;5084183;28;20444;-58
2023/09/25 04:43:20;;;;;;;;;;;;;;;;;;5088308;28;20382;-59
2023/09/25 04:45:46;;;;;;;;;;;;;;;;;;5082774;28;19951;-59
2023/09/25 04:48:13;;;;;;;;;;;;;;;;;;5084154;28;19916;-59
2023/09/25 04:50:40;;;;;;;;;;;;;;;;;;5084613;28;20455;-59
2023/09/25 04:53:08;;;;;;;;;;;;;;;;;;5081607;28;20034;-59
2023/09/25 04:55:36;;;;;;;;;;;;;;;;;;5080917;28;20006;-59
2023/09/25 04:58:02;;;;;;;;;;;;;;;;;;5077937;28;21636;-59
2023/09/25 05:00:28;;;;;;;;;;;;;;;;;;5075281;28;20276;-59
2023/09/25 05:02:54;;;;;;;;;;;;;;;;;;5083188;28;19947;-59
2023/09/25 05:05:20;;;;;;;;;;;;;;;;;;5075906;28;19927;-58
2023/09/25 05:07:46;;;;;;;;;;;;;;;;;;5076624;28;19993;-59
2023/09/25 05:10:12;;;;;;;;;;;;;;;;;;5084625;28;19912;-60
2023/09/25 05:12:38;;;;;;;;;;;;;;;;;;5084531;28;20003;-58
2023/09/25 05:15:04;;;;;;;;;;;;;;;;;;5076166;28;19923;-58
2023/09/25 05:17:29;;;;;;;;;;;;;;;;;;5083243;28;19920;-59
2023/09/25 05:19:55;;;;;;;;;;;;;;;;;;5078582;28;20029;-58
2023/09/25 05:22:21;;;;;;;;;;;;;;;;;;5080286;28;19920;-59
2023/09/25 05:24:48;;;;;;;;;;;;;;;;;;5090106;28;19959;-60
2023/09/25 05:27:14;;;;;;;;;;;;;;;;;;5079192;28;19909;-58
2023/09/25 05:29:40;;;;;;;;;;;;;;;;;;5091700;28;19916;-59
2023/09/25 05:32:06;;;;;;;;;;;;;;;;;;5083341;28;20357;-59
2023/09/25 05:34:32;;;;;;;;;;;;;;;;;;5085494;28;19912;-59
2023/09/25 05:36:58;;;;;;;;;;;;;;;;;;5075845;28;20291;-58
2023/09/25 05:39:24;;;;;;;;;;;;;;;;;;5080212;28;19962;-58
2023/09/25 05:41:51;;;;;;;;;;;;;;;;;;5085690;28;19923;-58
2023/09/25 05:44:17;;;;;;;;;;;;;;;;;;5080309;28;19916;-59
2023/09/25 05:46:43;;;;;;;;;;;;;;;;;;5076524;28;19982;-59
2023/09/25 05:49:09;;;;;;;;;;;;;;;;;;5078736;28;19995;-59
2023/09/25 05:51:35;;;;;;;;;;;;;;;;;;5080382;28;20365;-61
2023/09/25 05:54:05;;;;;;;;;;;;;;;;;;5085672;28;20276;-60
2023/09/25 05:56:30;;;;;;;;;;;;;;;;;;5079155;28;20444;-60
2023/09/25 05:58:56;;;;;;;;;;;;;;;;;;5079886;28;19947;-60
2023/09/25 06:01:22;;;;;;;;;;;;;;;;;;5071858;28;19909;-60
2023/09/25 06:03:49;;;;;;;;;;;;;;;;;;5075626;28;20365;-61
2023/09/25 06:06:15;;;;;;;;;;;;;;;;;;5088391;28;19912;-60
2023/09/25 06:08:41;;;;;;;;;;;;;;;;;;5078597;28;19915;-60
2023/09/25 06:11:07;;;;;;;;;;;;;;;;;;5078340;28;19955;-60
2023/09/25 06:13:34;;;;;;;;;;;;;;;;;;5073074;28;20397;-60
2023/09/25 06:15:59;;;;;;;;;;;;;;;;;;5080415;28;20284;-60
2023/09/25 06:18:26;;;;;;;;;;;;;;;;;;5075573;28;19955;-60
2023/09/25 06:20:52;;;;;;;;;;;;;;;;;;5071604;28;19970;-60
2023/09/25 06:23:18;;;;;;;;;;;;;;;;;;5076450;28;19909;-60
2023/09/25 06:25:47;;;;;;;;;;;;;;;;;;5083653;28;19919;-60
2023/09/25 06:28:14;;;;;;;;;;;;;;;;;;5079869;28;19953;-60
2023/09/25 06:30:41;;;;;;;;;;;;;;;;;;5072314;28;19966;-60
2023/09/25 06:33:07;;;;;;;;;;;;;;;;;;5079486;28;19951;-60
2023/09/25 06:35:33;;;;;;;;;;;;;;;;;;5092004;28;19947;-60
2023/09/25 06:37:59;;;;;;;;;;;;;;;;;;5073126;28;20248;-60
2023/09/25 06:40:25;;;;;;;;;;;;;;;;;;5082435;28;19916;-60
2023/09/25 06:42:51;;;;;;;;;;;;;;;;;;5084973;28;19919;-60
2023/09/25 06:45:17;;;;;;;;;;;;;;;;;;5082033;28;19916;-60
2023/09/25 06:47:46;;;;;;;;;;;;;;;;;;5083962;28;19912;-60
2023/09/25 06:50:12;;;;;;;;;;;;;;;;;;5075158;28;19913;-63
2023/09/25 06:52:40;;;;;;;;;;;;;;;;;;5071201;28;19946;-60
2023/09/25 06:55:06;;;;;;;;;;;;;;;;;;5083511;28;20363;-61
2023/09/25 06:57:32;;;;;;;;;;;;;;;;;;5078141;28;19919;-60
2023/09/25 06:59:58;;;;;;;;;;;;;;;;;;5079122;28;19991;-60
2023/09/25 07:02:25;;;;;;;;;;;;;;;;;;5076124;28;19995;-60
2023/09/25 07:04:51;;;;;;;;;;;;;;;;;;5085560;28;19916;-60
2023/09/25 07:07:17;;;;;;;;;;;;;;;;;;5077839;28;19951;-61
2023/09/25 07:09:43;;;;;;;;;;;;;;;;;;5083986;28;20424;-60
2023/09/25 07:12:12;;;;;;;;;;;;;;;;;;5078518;28;20028;-60
2023/09/25 07:14:38;;;;;;;;;;;;;;;;;;5084671;28;19931;-60
2023/09/25 07:17:04;;;;;;;;;;;;;;;;;;5074686;28;19948;-60
2023/09/25 07:19:30;;;;;;;;;;;;;;;;;;5071619;28;20340;-60
2023/09/25 07:21:56;;;;;;;;;;;;;;;;;;5077507;28;19924;-61
2023/09/25 07:24:23;;;;;;;;;;;;;;;;;;5082460;28;21557;-61
2023/09/25 07:26:51;;;;;;;;;;;;;;;;;;5070871;28;19966;-60
2023/09/25 07:29:19;;;;;;;;;;;;;;;;;;5077181;28;19912;-60
2023/09/25 07:31:45;;;;;;;;;;;;;;;;;;5077736;28;20397;-60
2023/09/25 07:34:10;;;;;;;;;;;;;;;;;;5076077;28;19912;-61
2023/09/25 07:36:36;;;;;;;;;;;;;;;;;;5080722;28;19943;-60
2023/09/25 07:39:04;;;;;;;;;;;;;;;;;;5079687;28;20282;-60
2023/09/25 07:41:30;;;;;;;;;;;;;;;;;;5074859;28;19913;-61
2023/09/25 07:43:56;;;;;;;;;;;;;;;;;;5073640;28;19975;-60
2023/09/25 07:46:25;;;;;;;;;;;;;;;;;;5075519;28;20384;-60
2023/09/25 07:48:52;;;;;;;;;;;;;;;;;;5073888;28;20437;-60
2023/09/25 07:51:18;;;;;;;;;;;;;;;;;;5072472;28;19913;-61
2023/09/25 07:53:44;;;;;;;;;;;;;;;;;;5070203;28;20293;-60
2023/09/25 07:56:10;;;;;;;;;;;;;;;;;;5087925;28;20272;-60
2023/09/25 07:58:39;;;;;;;;;;;;;;;;;;5076522;28;19919;-62
2023/09/25 08:01:08;;;;;;;;;;;;;;;;;;5083431;28;19916;-63
2023/09/25 08:03:34;;;;;;;;;;;;;;;;;;5082182;28;19909;-62
2023/09/25 08:06:05;;;;;;;;;;;;;;;;;;5080675;28;19927;-63
2023/09/25 08:08:31;;;;;;;;;;;;;;;;;;5080560;28;19912;-63
2023/09/25 08:10:57;;;;;;;;;;;;;;;;;;5075938;28;19966;-61
2023/09/25 08:13:22;;;;;;;;;;;;;;;;;;5086604;28;20394;-62
2023/09/25 08:15:48;;;;;;;;;;;;;;;;;;5078537;28;20376;-62
2023/09/25 08:18:15;;;;;;;;;;;;;;;;;;5086926;28;19999;-61
2023/09/25 08:20:41;;;;;;;;;;;;;;;;;;5082025;28;20401;-61
2023/09/25 08:23:07;;;;;;;;;;;;;;;;;;5088384;28;19990;-61
2023/09/25 08:25:33;;;;;;;;;;;;;;;;;;5083911;28;19920;-61
2023/09/25 08:27:59;;;;;;;;;;;;;;;;;;5087199;28;19912;-62
2023/09/25 08:30:26;;;;;;;;;;;;;;;;;;5080244;28;19919;-61
2023/09/25 08:32:53;;;;;;;;;;;;;;;;;;5078626;28;19978;-61
2023/09/25 08:35:19;;;;;;;;;;;;;;;;;;5080533;28;19916;-61
2023/09/25 08:37:45;;;;;;;;;;;;;;;;;;5090605;28;19964;-61
2023/09/25 08:40:11;;;;;;;;;;;;;;;;;;5080944;28;19952;-61
2023/09/25 08:42:37;;;;;;;;;;;;;;;;;;5080893;28;19954;-60
2023/09/25 08:45:03;;;;;;;;;;;;;;;;;;5081643;28;19956;-61
2023/09/25 08:47:29;;;;;;;;;;;;;;;;;;5077742;28;19965;-61
2023/09/25 08:49:55;;;;;;;;;;;;;;;;;;5077233;28;19912;-61
2023/09/25 08:52:21;;;;;;;;;;;;;;;;;;5077172;28;19947;-60
2023/09/25 08:54:48;;;;;;;;;;;;;;;;;;5083447;28;19926;-60
2023/09/25 08:57:15;;;;;;;;;;;;;;;;;;5082391;28;19927;-61
2023/09/25 08:59:40;;;;;;;;;;;;;;;;;;5089667;28;19920;-61
2023/09/25 09:02:08;;;;;;;;;;;;;;;;;;5080073;28;20321;-61
2023/09/25 09:04:35;;;;;;;;;;;;;;;;;;5075686;28;19938;-61
2023/09/25 09:07:01;;;;;;;;;;;;;;;;;;5082220;28;20363;-61
2023/09/25 09:09:27;;;;;;;;;;;;;;;;;;5078715;28;20489;-61
2023/09/25 09:11:53;;;;;;;;;;;;;;;;;;5084585;28;19963;-61
2023/09/25 09:14:18;;;;;;;;;;;;;;;;;;5083258;28;19999;-61
2023/09/25 09:16:44;;;;;;;;;;;;;;;;;;5083392;28;19962;-61
2023/09/25 09:19:10;;;;;;;;;;;;;;;;;;5079061;28;20600;-61
2023/09/25 09:21:36;;;;;;;;;;;;;;;;;;5086339;28;19920;-62
2023/09/25 09:24:02;;;;;;;;;;;;;;;;;;5072728;28;20348;-62
2023/09/25 09:26:28;;;;;;;;;;;;;;;;;;5079579;28;20336;-60
2023/09/25 09:28:54;;;;;;;;;;;;;;;;;;5087036;28;19987;-59
2023/09/25 09:31:20;;;;;;;;;;;;;;;;;;5073622;28;19916;-62
2023/09/25 09:33:46;;;;;;;;;;;;;;;;;;5085541;28;19913;-60
2023/09/25 09:36:15;;;;;;;;;;;;;;;;;;5072675;28;20291;-60
2023/09/25 09:38:41;;;;;;;;;;;;;;;;;;5073552;28;19908;-60
2023/09/25 09:41:07;;;;;;;;;;;;;;;;;;5078508;28;19966;-62
2023/09/25 09:43:33;;;;;;;;;;;;;;;;;;5072810;28;19953;-62
2023/09/25 09:45:59;;;;;;;;;;;;;;;;;;5076157;28;19963;-59
2023/09/25 09:48:25;;;;;;;;;;;;;;;;;;5081498;28;20376;-59
2023/09/25 09:50:52;;;;;;;;;;;;;;;;;;5077302;28;19916;-62
2023/09/25 09:53:18;;;;;;;;;;;;;;;;;;5077330;28;19961;-62
2023/09/25 09:55:44;;;;;;;;;;;;;;;;;;5086850;28;19997;-62
2023/09/25 09:58:10;;;;;;;;;;;;;;;;;;5074772;28;20029;-62
2023/09/25 10:00:36;;;;;;;;;;;;;;;;;;5091027;28;19939;-61
2023/09/25 10:03:03;;;;;;;;;;;;;;;;;;5072324;28;20375;-60
2023/09/25 10:05:29;;;;;;;;;;;;;;;;;;5072728;28;19912;-61
2023/09/25 10:07:55;;;;;;;;;;;;;;;;;;5083956;28;20007;-61
2023/09/25 10:10:21;;;;;;;;;;;;;;;;;;5075100;28;20019;-62
2023/09/25 10:12:50;;;;;;;;;;;;;;;;;;5076541;28;19920;-59
2023/09/25 10:15:16;;;;;;;;;;;;;;;;;;5073424;28;20328;-61
2023/09/25 10:17:42;;;;;;;;;;;;;;;;;;5084223;28;20006;-63
2023/09/25 10:20:08;;;;;;;;;;;;;;;;;;5080927;28;19928;-62
2023/09/25 10:22:34;;;;;;;;;;;;;;;;;;5091881;28;19916;-60
2023/09/25 10:24:59;;;;;;;;;;;;;;;;;;5078634;28;20063;-61
2023/09/25 10:27:27;;;;;;;;;;;;;;;;;;5088504;28;20056;-59
2023/09/25 10:29:53;;;;;;;;;;;;;;;;;;5089110;28;19931;-61
2023/09/25 10:32:19;;;;;;;;;;;;;;;;;;5075637;28;19913;-61
2023/09/25 10:34:46;;;;;;;;;;;;;;;;;;5085918;28;19908;-61
2023/09/25 10:37:12;;;;;;;;;;;;;;;;;;5072667;28;20013;-61
2023/09/25 10:39:38;;;;;;;;;;;;;;;;;;5085188;28;20031;-61
2023/09/25 10:42:04;;;;;;;;;;;;;;;;;;5083228;28;19909;-62
2023/09/25 10:44:30;;;;;;;;;;;;;;;;;;5084483;28;20363;-62
2023/09/25 10:46:56;;;;;;;;;;;;;;;;;;5071738;28;20391;-61
2023/09/25 10:49:22;;;;;;;;;;;;;;;;;;5084679;28;19908;-61
2023/09/25 10:51:48;;;;;;;;;;;;;;;;;;5080655;28;20008;-61
2023/09/25 10:54:14;;;;;;;;;;;;;;;;;;5078938;28;19915;-62
2023/09/25 10:56:40;;;;;;;;;;;;;;;;;;5081170;28;19916;-62
2023/09/25 10:59:07;;;;;;;;;;;;;;;;;;5090234;28;19908;-61
2023/09/25 11:01:35;;;;;;;;;;;;;;;;;;5077900;28;19981;-61
2023/09/25 11:04:01;;;;;;;;;;;;;;;;;;5084966;28;19919;-62
2023/09/25 11:06:27;;;;;;;;;;;;;;;;;;5078695;28;20006;-61
2023/09/25 11:08:52;;;;;;;;;;;;;;;;;;5076677;28;19914;-61
2023/09/25 11:11:18;;;;;;;;;;;;;;;;;;5087285;28;19919;-61
2023/09/25 11:13:44;;;;;;;;;;;;;;;;;;5087700;28;19951;-62
2023/09/25 11:16:10;;;;;;;;;;;;;;;;;;5076854;28;19916;-61
2023/09/25 11:18:36;;;;;;;;;;;;;;;;;;5082750;28;20390;-61
2023/09/25 11:21:02;;;;;;;;;;;;;;;;;;5078277;28;19956;-61
2023/09/25 11:23:28;;;;;;;;;;;;;;;;;;5084645;28;20346;-60
2023/09/25 11:25:54;;;;;;;;;;;;;;;;;;5076683;28;20023;-61
2023/09/25 11:28:20;;;;;;;;;;;;;;;;;;5087204;28;19923;-61
2023/09/25 11:30:46;;;;;;;;;;;;;;;;;;5081435;28;19909;-61
2023/09/25 11:33:13;;;;;;;;;;;;;;;;;;5074830;28;20022;-61
2023/09/25 11:35:39;;;;;;;;;;;;;;;;;;5079733;28;20431;-61
2023/09/25 11:38:05;;;;;;;;;;;;;;;;;;5084886;28;19909;-60
2023/09/25 11:40:31;;;;;;;;;;;;;;;;;;5081154;28;19908;-62
2023/09/25 11:42:57;;;;;;;;;;;;;;;;;;5072677;28;20604;-64
2023/09/25 11:45:23;;;;;;;;;;;;;;;;;;5081796;28;19963;-68
2023/09/25 11:47:49;;;;;;;;;;;;;;;;;;5076653;28;19955;-63
2023/09/25 11:50:16;;;;;;;;;;;;;;;;;;5084684;28;19908;-63
2023/09/25 11:52:41;;;;;;;;;;;;;;;;;;5088535;28;19920;-62
2023/09/25 11:55:11;;;;;;;;;;;;;;;;;;5078084;28;19912;-62
2023/09/25 11:57:37;;;;;;;;;;;;;;;;;;5087243;28;19912;-63
2023/09/25 12:00:06;;;;;;;;;;;;;;;;;;5078178;28;19961;-62
2023/09/25 12:02:32;;;;;;;;;;;;;;;;;;5079305;28;19908;-63
2023/09/25 12:04:58;;;;;;;;;;;;;;;;;;5079650;28;19952;-62
2023/09/25 12:07:26;;;;;;;;;;;;;;;;;;5077154;28;19919;-62
2023/09/25 12:09:52;;;;;;;;;;;;;;;;;;5081062;28;19915;-63
2023/09/25 12:12:18;;;;;;;;;;;;;;;;;;5085612;28;19960;-62
2023/09/25 12:14:44;;;;;;;;;;;;;;;;;;5074239;28;19930;-62
2023/09/25 12:17:10;;;;;;;;;;;;;;;;;;5077453;28;19923;-63
2023/09/25 12:19:36;;;;;;;;;;;;;;;;;;5081443;28;19912;-62
2023/09/25 12:22:02;;;;;;;;;;;;;;;;;;5074609;28;19916;-61
2023/09/25 12:24:28;;;;;;;;;;;;;;;;;;5083272;28;20364;-60
2023/09/25 12:26:54;;;;;;;;;;;;;;;;;;5082781;28;19915;-60
2023/09/25 12:29:20;;;;;;;;;;;;;;;;;;5094395;28;19916;-60
2023/09/25 12:31:46;;;;;;;;;;;;;;;;;;5077200;28;20840;-60
2023/09/25 12:34:12;;;;;;;;;;;;;;;;;;5074343;28;19954;-60
2023/09/25 12:36:38;;;;;;;;;;;;;;;;;;5076388;28;20356;-61
2023/09/25 12:39:06;;;;;;;;;;;;;;;;;;5076799;28;20045;-61
2023/09/25 12:41:32;;;;;;;;;;;;;;;;;;5078326;28;19912;-58
2023/09/25 12:43:58;;;;;;;;;;;;;;;;;;5090260;28;19922;-57
2023/09/25 12:46:24;;;;;;;;;;;;;;;;;;5079206;28;20351;-58
2023/09/25 12:48:50;;;;;;;;;;;;;;;;;;5074401;28;19922;-57
2023/09/25 12:51:15;;;;;;;;;;;;;;;;;;5086676;28;19908;-59
2023/09/25 12:53:41;;;;;;;;;;;;;;;;;;5073055;28;19952;-59
2023/09/25 12:56:07;;;;;;;;;;;;;;;;;;5087168;28;19915;-59
2023/09/25 12:58:33;;;;;;;;;;;;;;;;;;5084919;28;19916;-59
2023/09/25 13:00:59;;;;;;;;;;;;;;;;;;5075347;28;19958;-59
2023/09/25 13:03:25;;;;;;;;;;;;;;;;;;5082834;28;19920;-59
2023/09/25 13:05:52;;;;;;;;;;;;;;;;;;5080641;28;19944;-59
2023/09/25 13:08:18;;;;;;;;;;;;;;;;;;5084366;28;20458;-59
2023/09/25 13:10:44;;;;;;;;;;;;;;;;;;5080941;28;20003;-59
2023/09/25 13:13:10;;;;;;;;;;;;;;;;;;5090256;28;19912;-59
2023/09/25 13:15:36;;;;;;;;;;;;;;;;;;5076866;28;19990;-59
2023/09/25 13:18:04;;;;;;;;;;;;;;;;;;5074481;28;19912;-59
2023/09/25 13:20:30;;;;;;;;;;;;;;;;;;5077506;28;19920;-60
2023/09/25 13:22:56;;;;;;;;;;;;;;;;;;5080020;28;20638;-60
2023/09/25 13:25:24;;;;;;;;;;;;;;;;;;5078824;28;19924;-59
2023/09/25 13:27:50;;;;;;;;;;;;;;;;;;5082875;28;19921;-59
2023/09/25 13:30:18;;;;;;;;;;;;;;;;;;5072263;28;20335;-59
2023/09/25 13:32:44;;;;;;;;;;;;;;;;;;5082362;28;19912;-60
2023/09/25 13:35:10;;;;;;;;;;;;;;;;;;5077993;28;19908;-59
2023/09/25 13:37:36;;;;;;;;;;;;;;;;;;5077536;28;20371;-59
2023/09/25 13:40:04;;;;;;;;;;;;;;;;;;5087637;28;20007;-59
2023/09/25 13:42:30;;;;;;;;;;;;;;;;;;5079432;28;20102;-59
2023/09/25 13:44:56;;;;;;;;;;;;;;;;;;5081149;28;20458;-59
2023/09/25 13:47:22;;;;;;;;;;;;;;;;;;5073152;28;19916;-59
2023/09/25 13:49:48;;;;;;;;;;;;;;;;;;5083495;28;19920;-60
2023/09/25 13:52:14;;;;;;;;;;;;;;;;;;5082678;28;19966;-60
2023/09/25 13:54:40;;;;;;;;;;;;;;;;;;5080192;28;19912;-60
2023/09/25 13:57:06;;;;;;;;;;;;;;;;;;5081907;28;20294;-60
2023/09/25 13:59:33;;;;;;;;;;;;;;;;;;5074683;28;19948;-60
2023/09/25 14:01:58;;;;;;;;;;;;;;;;;;5082375;28;19912;-59
2023/09/25 14:04:24;;;;;;;;;;;;;;;;;;5089715;28;19932;-60
2023/09/25 14:06:50;;;;;;;;;;;;;;;;;;5076527;28;19920;-59
2023/09/25 14:09:16;;;;;;;;;;;;;;;;;;5081579;28;20337;-60
2023/09/25 14:11:42;;;;;;;;;;;;;;;;;;5074628;28;19938;-59
2023/09/25 14:14:08;;;;;;;;;;;;;;;;;;5079430;28;19943;-58
2023/09/25 14:16:34;;;;;;;;;;;;;;;;;;5079483;28;19947;-59
2023/09/25 14:19:00;;;;;;;;;;;;;;;;;;5076943;28;20038;-58
2023/09/25 14:21:26;;;;;;;;;;;;;;;;;;5076757;28;19919;-61
2023/09/25 14:23:52;;;;;;;;;;;;;;;;;;5072623;28;19924;-60
2023/09/25 14:26:18;;;;;;;;;;;;;;;;;;5073742;28;20351;-60
2023/09/25 14:28:44;;;;;;;;;;;;;;;;;;5074587;28;20007;-60
2023/09/25 14:31:10;;;;;;;;;;;;;;;;;;5071922;28;20438;-60
2023/09/25 14:33:39;;;;;;;;;;;;;;;;;;5073513;28;19946;-60
2023/09/25 14:36:05;;;;;;;;;;;;;;;;;;5078904;28;19995;-60
2023/09/25 14:38:31;;;;;;;;;;;;;;;;;;5084597;28;20367;-61
2023/09/25 14:40:58;;;;;;;;;;;;;;;;;;5076786;28;19917;-60
2023/09/25 14:43:24;;;;;;;;;;;;;;;;;;5075403;28;19919;-60
2023/09/25 14:45:50;;;;;;;;;;;;;;;;;;5080538;28;20284;-60
2023/09/25 14:48:16;;;;;;;;;;;;;;;;;;5073089;28;19959;-59
2023/09/25 14:50:42;;;;;;;;;;;;;;;;;;5075928;28;20317;-60
2023/09/25 14:53:08;;;;;;;;;;;;;;;;;;5076432;28;19919;-60
2023/09/25 14:55:34;;;;;;;;;;;;;;;;;;5084221;28;20291;-60
2023/09/25 14:58:00;;;;;;;;;;;;;;;;;;5079156;28;20400;-60
2023/09/25 15:00:26;;;;;;;;;;;;;;;;;;5079340;28;19926;-59
2023/09/25 15:02:52;;;;;;;;;;;;;;;;;;5081670;28;19959;-59
2023/09/25 15:05:18;;;;;;;;;;;;;;;;;;5078301;28;19959;-59
2023/09/25 15:07:43;;;;;;;;;;;;;;;;;;5078420;28;19963;-59
2023/09/25 15:10:09;;;;;;;;;;;;;;;;;;5077579;28;19912;-59
2023/09/25 15:12:35;;;;;;;;;;;;;;;;;;5075358;28;19916;-59
2023/09/25 15:15:01;;;;;;;;;;;;;;;;;;5080321;28;19995;-59
2023/09/25 15:17:28;;;;;;;;;;;;;;;;;;5078626;28;19970;-59
2023/09/25 15:19:54;;;;;;;;;;;;;;;;;;5078600;28;20276;-59
2023/09/25 15:22:19;;;;;;;;;;;;;;;;;;5077703;28;19944;-61
2023/09/25 15:24:45;;;;;;;;;;;;;;;;;;5079496;28;19927;-61
2023/09/25 15:27:11;;;;;;;;;;;;;;;;;;5076811;28;19999;-61
2023/09/25 15:29:39;;;;;;;;;;;;;;;;;;5071894;28;20422;-61
2023/09/25 15:32:05;;;;;;;;;;;;;;;;;;5079428;28;19916;-61
2023/09/25 15:34:32;;;;;;;;;;;;;;;;;;5077865;28;20280;-62
2023/09/25 15:36:58;;;;;;;;;;;;;;;;;;5074689;28;19981;-61
2023/09/25 15:39:24;;;;;;;;;;;;;;;;;;5078255;28;19951;-61
2023/09/25 15:41:50;;;;;;;;;;;;;;;;;;5075836;28;19977;-61
2023/09/25 15:44:16;;;;;;;;;;;;;;;;;;5080020;28;19954;-62
2023/09/25 15:46:42;;;;;;;;;;;;;;;;;;5072918;28;20424;-61
2023/09/25 15:49:08;;;;;;;;;;;;;;;;;;5080717;28;20003;-61
2023/09/25 15:51:34;;;;;;;;;;;;;;;;;;5080373;28;19951;-61
2023/09/25 15:54:00;;;;;;;;;;;;;;;;;;5076250;28;19985;-62
2023/09/25 15:56:26;;;;;;;;;;;;;;;;;;5082800;28;19916;-61
2023/09/25 15:58:52;;;;;;;;;;;;;;;;;;5081626;28;19970;-62
2023/09/25 16:01:18;;;;;;;;;;;;;;;;;;5078766;28;19912;-64
2023/09/25 16:03:44;;;;;;;;;;;;;;;;;;5082842;28;20436;-63
2023/09/25 16:06:10;;;;;;;;;;;;;;;;;;5072329;28;19948;-63
2023/09/25 16:08:36;;;;;;;;;;;;;;;;;;5073304;28;20309;-64
2023/09/25 16:11:02;;;;;;;;;;;;;;;;;;5075650;28;19962;-64
2023/09/25 16:13:28;;;;;;;;;;;;;;;;;;5076830;28;19920;-61
2023/09/25 16:15:54;;;;;;;;;;;;;;;;;;5080751;28;20001;-61
2023/09/25 16:18:20;;;;;;;;;;;;;;;;;;5075507;28;20426;-63
2023/09/25 16:20:46;;;;;;;;;;;;;;;;;;5081017;28;19916;-64
2023/09/25 16:23:12;;;;;;;;;;;;;;;;;;5075874;28;19919;-64
2023/09/25 16:25:39;;;;;;;;;;;;;;;;;;5073184;28;19962;-64
2023/09/25 16:28:05;;;;;;;;;;;;;;;;;;5073307;28;19962;-63
2023/09/25 16:30:30;;;;;;;;;;;;;;;;;;5076949;28;20358;-64
2023/09/25 16:32:56;;;;;;;;;;;;;;;;;;5075395;28;20383;-64
2023/09/25 16:35:22;;;;;;;;;;;;;;;;;;5078837;28;19947;-64
2023/09/25 16:37:48;;;;;;;;;;;;;;;;;;5087898;28;19926;-64